Terminal Aerodrome Forecast
Issued by NWS Jackson, KY

Home | Current Version | Previous Version | Text Only | Print | Product List | Glossary On
Versions: 1 2 3 4 5 6 7 8 9 10 11 12 13 14 15 16 17 18
000
FTUS43 KJKL 241124
TAFLOZ
TAF
KLOZ 241124Z 2412/2512 VRB04KT P6SM SCT015 OVC040
      TEMPO 2412/2413 3SM BR BKN005 OVC015
     FM241300 28009KT P6SM FEW050 FEW250=

USA.gov is the U.S. government's official web portal to all federal, state and local government web resources and services.